Terminal Aerodrome Forecast
Issued by NWS

Home | Current Version | Previous Version | Text Only | Print | Product List | Glossary On
Versions: 1 2 3 4 5 6 7 8 9 10 11 12 13 14
000
FTUS41 KBTV 300525
TAFPBG
TAF
KPBG 300525Z 3006/3106 35007KT P6SM SCT045
     FM301300 36006KT P6SM SCT250
     FM301500 04007KT P6SM SCT250
     FM310000 VRB03KT P6SM FEW250=

USA.gov is the U.S. government's official web portal to all federal, state and local government web resources and services.